sensor_id;sensor_type;location;lat;lon;timestamp;temperature;humidity
32877;DHT22;19226;51.600;8.034;2022-07-29T00:01:29;20.60;99.90
32877;DHT22;19226;51.600;8.034;2022-07-29T00:03:57;20.50;99.90
32877;DHT22;19226;51.600;8.034;2022-07-29T00:06:24;20.50;99.90
32877;DHT22;19226;51.600;8.034;2022-07-29T00:08:53;20.50;99.90
32877;DHT22;19226;51.600;8.034;2022-07-29T00:11:19;20.40;99.90
32877;DHT22;19226;51.600;8.034;2022-07-29T00:13:45;20.40;99.90
32877;DHT22;19226;51.600;8.034;2022-07-29T00:16:11;20.40;99.90
32877;DHT22;19226;51.600;8.034;2022-07-29T00:18:37;20.40;99.90
32877;DHT22;19226;51.600;8.034;2022-07-29T00:21:03;20.40;99.90
32877;DHT22;19226;51.600;8.034;2022-07-29T00:23:29;20.30;99.90
32877;DHT22;19226;51.600;8.034;2022-07-29T00:25:55;20.40;99.90
32877;DHT22;19226;51.600;8.034;2022-07-29T00:28:27;20.40;99.90
32877;DHT22;19226;51.600;8.034;2022-07-29T00:30:53;20.30;99.90
32877;DHT22;19226;51.600;8.034;2022-07-29T00:33:19;20.30;99.90
32877;DHT22;19226;51.600;8.034;2022-07-29T00:35:46;20.20;99.90
32877;DHT22;19226;51.600;8.034;2022-07-29T00:38:14;20.10;99.90
32877;DHT22;19226;51.600;8.034;2022-07-29T00:40:41;20.10;99.90
32877;DHT22;19226;51.600;8.034;2022-07-29T00:43:08;20.10;99.90
32877;DHT22;19226;51.600;8.034;2022-07-29T00:45:35;20.00;99.90
32877;DHT22;19226;51.600;8.034;2022-07-29T00:48:03;20.00;99.90
32877;DHT22;19226;51.600;8.034;2022-07-29T00:50:31;20.00;99.90
32877;DHT22;19226;51.600;8.034;2022-07-29T00:52:58;20.00;99.90
32877;DHT22;19226;51.600;8.034;2022-07-29T00:55:24;19.90;99.90
32877;DHT22;19226;51.600;8.034;2022-07-29T00:57:50;19.90;99.90
32877;DHT22;19226;51.600;8.034;2022-07-29T01:00:23;19.90;99.90
32877;DHT22;19226;51.600;8.034;2022-07-29T01:02:50;19.90;99.90
32877;DHT22;19226;51.600;8.034;2022-07-29T01:05:24;19.90;99.90
32877;DHT22;19226;51.600;8.034;2022-07-29T01:07:53;19.80;99.90
32877;DHT22;19226;51.600;8.034;2022-07-29T01:10:20;19.80;99.90
32877;DHT22;19226;51.600;8.034;2022-07-29T01:12:49;19.80;99.90
32877;DHT22;19226;51.600;8.034;2022-07-29T01:15:16;19.80;99.90
32877;DHT22;19226;51.600;8.034;2022-07-29T01:17:56;19.80;99.90
32877;DHT22;19226;51.600;8.034;2022-07-29T01:20:26;19.80;99.90
32877;DHT22;19226;51.600;8.034;2022-07-29T01:23:07;19.80;99.90
32877;DHT22;19226;51.600;8.034;2022-07-29T01:25:53;19.70;99.90
32877;DHT22;19226;51.600;8.034;2022-07-29T01:31:18;19.70;99.90
32877;DHT22;19226;51.600;8.034;2022-07-29T01:33:50;19.70;99.90
32877;DHT22;19226;51.600;8.034;2022-07-29T01:36:45;19.60;99.90
32877;DHT22;19226;51.600;8.034;2022-07-29T01:39:32;19.60;99.90
32877;DHT22;19226;51.600;8.034;2022-07-29T01:44:40;19.60;99.90
32877;DHT22;19226;51.600;8.034;2022-07-29T01:47:17;19.50;99.90
32877;DHT22;19226;51.600;8.034;2022-07-29T01:49:51;19.50;99.90
32877;DHT22;19226;51.600;8.034;2022-07-29T01:52:26;19.50;99.90
32877;DHT22;19226;51.600;8.034;2022-07-29T01:54:57;19.40;99.90
32877;DHT22;19226;51.600;8.034;2022-07-29T01:57:27;19.40;99.90
32877;DHT22;19226;51.600;8.034;2022-07-29T01:59:57;19.40;99.90
32877;DHT22;19226;51.600;8.034;2022-07-29T02:02:24;19.40;99.90
32877;DHT22;19226;51.600;8.034;2022-07-29T02:05:12;19.40;99.90
32877;DHT22;19226;51.600;8.034;2022-07-29T02:07:41;19.40;99.90
32877;DHT22;19226;51.600;8.034;2022-07-29T02:10:09;19.40;99.90
32877;DHT22;19226;51.600;8.034;2022-07-29T02:12:36;19.40;99.90
32877;DHT22;19226;51.600;8.034;2022-07-29T02:15:04;19.30;99.90
32877;DHT22;19226;51.600;8.034;2022-07-29T02:17:41;19.30;99.90
32877;DHT22;19226;51.600;8.034;2022-07-29T02:20:09;19.30;99.90
32877;DHT22;19226;51.600;8.034;2022-07-29T02:22:38;19.30;99.90
32877;DHT22;19226;51.600;8.034;2022-07-29T02:25:07;19.30;99.90
32877;DHT22;19226;51.600;8.034;2022-07-29T02:27:34;19.30;99.90
32877;DHT22;19226;51.600;8.034;2022-07-29T02:30:03;19.30;99.90
32877;DHT22;19226;51.600;8.034;2022-07-29T02:32:30;19.20;99.90
32877;DHT22;19226;51.600;8.034;2022-07-29T02:34:58;19.20;99.90
32877;DHT22;19226;51.600;8.034;2022-07-29T02:37:27;19.20;99.90
32877;DHT22;19226;51.600;8.034;2022-07-29T02:39:55;19.20;99.90
32877;DHT22;19226;51.600;8.034;2022-07-29T02:42:24;19.20;99.90
32877;DHT22;19226;51.600;8.034;2022-07-29T02:44:52;19.10;99.90
32877;DHT22;19226;51.600;8.034;2022-07-29T02:52:49;19.10;99.90
32877;DHT22;19226;51.600;8.034;2022-07-29T02:55:29;19.10;99.90
32877;DHT22;19226;51.600;8.034;2022-07-29T03:00:47;19.10;99.90
32877;DHT22;19226;51.600;8.034;2022-07-29T03:03:16;19.10;99.90
32877;DHT22;19226;51.600;8.034;2022-07-29T03:05:43;19.10;99.90
32877;DHT22;19226;51.600;8.034;2022-07-29T03:08:11;19.10;99.90
32877;DHT22;19226;51.600;8.034;2022-07-29T03:10:39;19.10;99.90
32877;DHT22;19226;51.600;8.034;2022-07-29T03:13:10;19.10;99.90
32877;DHT22;19226;51.600;8.034;2022-07-29T03:15:37;19.10;99.90
32877;DHT22;19226;51.600;8.034;2022-07-29T03:18:05;19.10;99.90
32877;DHT22;19226;51.600;8.034;2022-07-29T03:20:32;19.10;99.90
32877;DHT22;19226;51.600;8.034;2022-07-29T03:22:59;19.10;99.90
32877;DHT22;19226;51.600;8.034;2022-07-29T03:25:25;19.20;99.90
32877;DHT22;19226;51.600;8.034;2022-07-29T03:27:53;19.20;99.90
32877;DHT22;19226;51.600;8.034;2022-07-29T03:30:19;19.20;99.90
32877;DHT22;19226;51.600;8.034;2022-07-29T03:32:47;19.30;99.90
32877;DHT22;19226;51.600;8.034;2022-07-29T03:35:13;19.30;99.90
32877;DHT22;19226;51.600;8.034;2022-07-29T03:37:42;19.30;99.90
32877;DHT22;19226;51.600;8.034;2022-07-29T03:40:11;19.30;99.90
32877;DHT22;19226;51.600;8.034;2022-07-29T03:42:39;19.20;99.90
32877;DHT22;19226;51.600;8.034;2022-07-29T03:45:09;19.20;99.90
32877;DHT22;19226;51.600;8.034;2022-07-29T03:47:40;19.20;99.90
32877;DHT22;19226;51.600;8.034;2022-07-29T03:50:11;19.10;99.90
32877;DHT22;19226;51.600;8.034;2022-07-29T03:52:39;19.10;99.90
32877;DHT22;19226;51.600;8.034;2022-07-29T03:55:07;19.10;99.90
32877;DHT22;19226;51.600;8.034;2022-07-29T03:57:35;19.00;99.90
32877;DHT22;19226;51.600;8.034;2022-07-29T04:00:04;19.00;99.90
32877;DHT22;19226;51.600;8.034;2022-07-29T04:02:32;19.00;99.90
32877;DHT22;19226;51.600;8.034;2022-07-29T04:04:58;19.00;99.90
32877;DHT22;19226;51.600;8.034;2022-07-29T04:07:25;19.00;99.90
32877;DHT22;19226;51.600;8.034;2022-07-29T04:09:51;18.90;99.90
32877;DHT22;19226;51.600;8.034;2022-07-29T04:12:18;18.90;99.90
32877;DHT22;19226;51.600;8.034;2022-07-29T04:14:44;19.00;99.90
32877;DHT22;19226;51.600;8.034;2022-07-29T04:17:10;18.90;99.90
32877;DHT22;19226;51.600;8.034;2022-07-29T04:19:36;18.90;99.90
32877;DHT22;19226;51.600;8.034;2022-07-29T04:22:02;19.00;99.90
32877;DHT22;19226;51.600;8.034;2022-07-29T04:24:28;19.00;99.90
32877;DHT22;19226;51.600;8.034;2022-07-29T04:26:55;19.00;99.90
32877;DHT22;19226;51.600;8.034;2022-07-29T04:29:21;19.00;99.90
32877;DHT22;19226;51.600;8.034;2022-07-29T04:31:49;19.00;99.90
32877;DHT22;19226;51.600;8.034;2022-07-29T04:34:15;19.00;99.90
32877;DHT22;19226;51.600;8.034;2022-07-29T04:36:43;19.00;99.90
32877;DHT22;19226;51.600;8.034;2022-07-29T04:39:09;19.00;99.90
32877;DHT22;19226;51.600;8.034;2022-07-29T04:41:36;19.00;99.90
32877;DHT22;19226;51.600;8.034;2022-07-29T04:44:02;19.00;99.90
32877;DHT22;19226;51.600;8.034;2022-07-29T04:46:31;19.00;99.90
32877;DHT22;19226;51.600;8.034;2022-07-29T04:48:57;19.10;99.90
32877;DHT22;19226;51.600;8.034;2022-07-29T04:51:23;19.10;99.90
32877;DHT22;19226;51.600;8.034;2022-07-29T04:53:49;19.10;99.90
32877;DHT22;19226;51.600;8.034;2022-07-29T04:56:15;19.10;99.90
32877;DHT22;19226;51.600;8.034;2022-07-29T04:58:43;19.10;99.90
32877;DHT22;19226;51.600;8.034;2022-07-29T05:01:09;19.20;99.90
32877;DHT22;19226;51.600;8.034;2022-07-29T05:03:36;19.20;99.90
32877;DHT22;19226;51.600;8.034;2022-07-29T05:06:02;19.20;99.90
32877;DHT22;19226;51.600;8.034;2022-07-29T05:08:28;19.20;99.90
32877;DHT22;19226;51.600;8.034;2022-07-29T05:10:54;19.20;99.90
32877;DHT22;19226;51.600;8.034;2022-07-29T05:13:27;19.30;99.90
32877;DHT22;19226;51.600;8.034;2022-07-29T05:15:53;19.30;99.90
32877;DHT22;19226;51.600;8.034;2022-07-29T05:18:19;19.30;99.90
32877;DHT22;19226;51.600;8.034;2022-07-29T05:20:45;19.30;99.90
32877;DHT22;19226;51.600;8.034;2022-07-29T05:23:11;19.40;99.90
32877;DHT22;19226;51.600;8.034;2022-07-29T05:25:42;19.40;99.90
32877;DHT22;19226;51.600;8.034;2022-07-29T05:28:08;19.40;99.90
32877;DHT22;19226;51.600;8.034;2022-07-29T05:30:34;19.40;99.90
32877;DHT22;19226;51.600;8.034;2022-07-29T05:33:02;19.40;99.90
32877;DHT22;19226;51.600;8.034;2022-07-29T05:35:28;19.50;99.90
32877;DHT22;19226;51.600;8.034;2022-07-29T05:37:54;19.50;99.90
32877;DHT22;19226;51.600;8.034;2022-07-29T05:40:22;19.50;99.90
32877;DHT22;19226;51.600;8.034;2022-07-29T05:42:49;19.50;99.90
32877;DHT22;19226;51.600;8.034;2022-07-29T05:45:15;19.50;99.90
32877;DHT22;19226;51.600;8.034;2022-07-29T05:47:41;19.50;99.90
32877;DHT22;19226;51.600;8.034;2022-07-29T05:50:09;19.50;99.90
32877;DHT22;19226;51.600;8.034;2022-07-29T05:52:36;19.60;99.90
32877;DHT22;19226;51.600;8.034;2022-07-29T05:55:03;19.60;99.90
32877;DHT22;19226;51.600;8.034;2022-07-29T05:57:31;19.60;99.90
32877;DHT22;19226;51.600;8.034;2022-07-29T05:59:58;19.70;99.90
32877;DHT22;19226;51.600;8.034;2022-07-29T06:02:25;19.70;99.90
32877;DHT22;19226;51.600;8.034;2022-07-29T06:04:50;19.70;99.90
32877;DHT22;19226;51.600;8.034;2022-07-29T06:07:17;19.80;99.90
32877;DHT22;19226;51.600;8.034;2022-07-29T06:09:43;19.80;99.90
32877;DHT22;19226;51.600;8.034;2022-07-29T06:12:09;19.90;99.90
32877;DHT22;19226;51.600;8.034;2022-07-29T06:14:36;20.00;99.90
32877;DHT22;19226;51.600;8.034;2022-07-29T06:17:04;20.00;99.90
32877;DHT22;19226;51.600;8.034;2022-07-29T06:19:33;20.10;99.90
32877;DHT22;19226;51.600;8.034;2022-07-29T06:22:00;20.20;99.90
32877;DHT22;19226;51.600;8.034;2022-07-29T06:24:29;20.20;99.90
32877;DHT22;19226;51.600;8.034;2022-07-29T06:26:57;20.20;99.90
32877;DHT22;19226;51.600;8.034;2022-07-29T06:29:23;20.30;99.90
32877;DHT22;19226;51.600;8.034;2022-07-29T06:31:49;20.30;99.90
32877;DHT22;19226;51.600;8.034;2022-07-29T06:34:15;20.20;99.90
32877;DHT22;19226;51.600;8.034;2022-07-29T06:36:42;20.20;99.90
32877;DHT22;19226;51.600;8.034;2022-07-29T06:39:08;20.20;99.90
32877;DHT22;19226;51.600;8.034;2022-07-29T06:41:34;20.30;99.90
32877;DHT22;19226;51.600;8.034;2022-07-29T06:44:12;20.30;99.90
32877;DHT22;19226;51.600;8.034;2022-07-29T06:46:38;20.50;99.90
32877;DHT22;19226;51.600;8.034;2022-07-29T06:49:07;20.60;99.90
32877;DHT22;19226;51.600;8.034;2022-07-29T06:51:33;20.70;99.90
32877;DHT22;19226;51.600;8.034;2022-07-29T06:54:02;20.90;99.90
32877;DHT22;19226;51.600;8.034;2022-07-29T06:56:33;21.00;99.90
32877;DHT22;19226;51.600;8.034;2022-07-29T06:59:00;21.10;99.90
32877;DHT22;19226;51.600;8.034;2022-07-29T07:01:27;21.20;99.90
32877;DHT22;19226;51.600;8.034;2022-07-29T07:03:53;21.30;99.90
32877;DHT22;19226;51.600;8.034;2022-07-29T07:06:19;21.40;99.90
32877;DHT22;19226;51.600;8.034;2022-07-29T07:08:45;21.40;99.90
32877;DHT22;19226;51.600;8.034;2022-07-29T07:11:11;21.30;99.90
32877;DHT22;19226;51.600;8.034;2022-07-29T07:13:37;21.40;99.90
32877;DHT22;19226;51.600;8.034;2022-07-29T07:16:04;21.50;99.90
32877;DHT22;19226;51.600;8.034;2022-07-29T07:18:31;21.70;99.90
32877;DHT22;19226;51.600;8.034;2022-07-29T07:20:57;21.80;99.90
32877;DHT22;19226;51.600;8.034;2022-07-29T07:23:24;21.90;99.90
32877;DHT22;19226;51.600;8.034;2022-07-29T07:25:50;21.80;99.90
32877;DHT22;19226;51.600;8.034;2022-07-29T07:28:17;21.90;99.90
32877;DHT22;19226;51.600;8.034;2022-07-29T07:30:44;22.00;99.90
32877;DHT22;19226;51.600;8.034;2022-07-29T07:33:11;22.00;99.90
32877;DHT22;19226;51.600;8.034;2022-07-29T07:35:37;22.20;99.90
32877;DHT22;19226;51.600;8.034;2022-07-29T07:38:04;22.30;99.90
32877;DHT22;19226;51.600;8.034;2022-07-29T07:40:32;22.40;99.90
32877;DHT22;19226;51.600;8.034;2022-07-29T07:42:58;22.60;99.90
32877;DHT22;19226;51.600;8.034;2022-07-29T07:45:24;22.70;99.90
32877;DHT22;19226;51.600;8.034;2022-07-29T07:47:50;22.80;99.90
32877;DHT22;19226;51.600;8.034;2022-07-29T07:50:16;23.00;99.90
32877;DHT22;19226;51.600;8.034;2022-07-29T07:52:47;23.10;99.90
32877;DHT22;19226;51.600;8.034;2022-07-29T07:55:13;23.20;99.90
32877;DHT22;19226;51.600;8.034;2022-07-29T07:57:42;23.30;99.90
32877;DHT22;19226;51.600;8.034;2022-07-29T08:00:08;23.30;99.90
32877;DHT22;19226;51.600;8.034;2022-07-29T08:02:38;23.40;99.90
32877;DHT22;19226;51.600;8.034;2022-07-29T08:05:08;23.50;99.90
32877;DHT22;19226;51.600;8.034;2022-07-29T08:07:34;23.60;99.90
32877;DHT22;19226;51.600;8.034;2022-07-29T08:10:01;23.70;99.90
32877;DHT22;19226;51.600;8.034;2022-07-29T08:12:27;23.70;99.90
32877;DHT22;19226;51.600;8.034;2022-07-29T08:14:53;23.70;99.90
32877;DHT22;19226;51.600;8.034;2022-07-29T08:17:20;23.80;99.90
32877;DHT22;19226;51.600;8.034;2022-07-29T08:19:46;23.90;99.90
32877;DHT22;19226;51.600;8.034;2022-07-29T08:22:14;24.00;99.90
32877;DHT22;19226;51.600;8.034;2022-07-29T08:24:43;24.10;99.90
32877;DHT22;19226;51.600;8.034;2022-07-29T08:27:13;24.20;99.90
32877;DHT22;19226;51.600;8.034;2022-07-29T08:29:40;24.50;99.90
32877;DHT22;19226;51.600;8.034;2022-07-29T08:32:07;24.60;99.90
32877;DHT22;19226;51.600;8.034;2022-07-29T08:34:33;24.60;99.90
32877;DHT22;19226;51.600;8.034;2022-07-29T08:37:00;24.60;99.90
32877;DHT22;19226;51.600;8.034;2022-07-29T08:39:25;24.70;99.90
32877;DHT22;19226;51.600;8.034;2022-07-29T08:41:52;25.00;99.90
32877;DHT22;19226;51.600;8.034;2022-07-29T08:44:19;25.10;99.90
32877;DHT22;19226;51.600;8.034;2022-07-29T08:46:49;25.10;99.90
32877;DHT22;19226;51.600;8.034;2022-07-29T08:49:17;25.40;99.90
32877;DHT22;19226;51.600;8.034;2022-07-29T08:51:44;25.50;99.90
32877;DHT22;19226;51.600;8.034;2022-07-29T08:54:11;25.70;99.90
32877;DHT22;19226;51.600;8.034;2022-07-29T08:56:39;25.80;99.90
32877;DHT22;19226;51.600;8.034;2022-07-29T08:59:05;26.10;99.90
32877;DHT22;19226;51.600;8.034;2022-07-29T09:01:37;26.20;99.90
32877;DHT22;19226;51.600;8.034;2022-07-29T09:04:07;26.20;99.90
32877;DHT22;19226;51.600;8.034;2022-07-29T09:06:38;26.20;99.90
32877;DHT22;19226;51.600;8.034;2022-07-29T09:09:07;26.30;99.90
32877;DHT22;19226;51.600;8.034;2022-07-29T09:11:33;26.40;99.90
32877;DHT22;19226;51.600;8.034;2022-07-29T09:14:26;26.60;99.90
32877;DHT22;19226;51.600;8.034;2022-07-29T09:16:55;26.90;99.90
32877;DHT22;19226;51.600;8.034;2022-07-29T09:19:26;27.00;99.90
32877;DHT22;19226;51.600;8.034;2022-07-29T09:21:54;27.00;99.90
32877;DHT22;19226;51.600;8.034;2022-07-29T09:24:43;26.90;99.90
32877;DHT22;19226;51.600;8.034;2022-07-29T09:27:24;27.00;99.90
32877;DHT22;19226;51.600;8.034;2022-07-29T09:30:06;26.90;99.90
32877;DHT22;19226;51.600;8.034;2022-07-29T09:32:33;26.90;99.90
32877;DHT22;19226;51.600;8.034;2022-07-29T09:35:22;27.10;99.90
32877;DHT22;19226;51.600;8.034;2022-07-29T09:37:51;27.30;99.90
32877;DHT22;19226;51.600;8.034;2022-07-29T09:40:27;27.40;99.90
32877;DHT22;19226;51.600;8.034;2022-07-29T09:42:54;27.50;99.90
32877;DHT22;19226;51.600;8.034;2022-07-29T09:45:32;27.70;99.90
32877;DHT22;19226;51.600;8.034;2022-07-29T09:48:12;27.80;99.90
32877;DHT22;19226;51.600;8.034;2022-07-29T09:50:39;27.80;99.90
32877;DHT22;19226;51.600;8.034;2022-07-29T09:53:07;28.00;99.90
32877;DHT22;19226;51.600;8.034;2022-07-29T09:55:50;28.10;99.90
32877;DHT22;19226;51.600;8.034;2022-07-29T09:58:18;28.20;99.90
32877;DHT22;19226;51.600;8.034;2022-07-29T10:00:46;28.20;99.90
32877;DHT22;19226;51.600;8.034;2022-07-29T10:03:13;28.30;99.90
32877;DHT22;19226;51.600;8.034;2022-07-29T10:05:39;28.10;99.90
32877;DHT22;19226;51.600;8.034;2022-07-29T10:08:09;28.20;99.90
32877;DHT22;19226;51.600;8.034;2022-07-29T10:10:37;28.30;99.90
32877;DHT22;19226;51.600;8.034;2022-07-29T10:13:09;28.50;99.90
32877;DHT22;19226;51.600;8.034;2022-07-29T10:15:38;28.60;99.90
32877;DHT22;19226;51.600;8.034;2022-07-29T10:18:12;28.60;99.90
32877;DHT22;19226;51.600;8.034;2022-07-29T10:20:39;28.60;99.90
32877;DHT22;19226;51.600;8.034;2022-07-29T10:23:06;28.50;99.90
32877;DHT22;19226;51.600;8.034;2022-07-29T10:25:35;28.50;99.90
32877;DHT22;19226;51.600;8.034;2022-07-29T10:28:01;28.60;99.90
32877;DHT22;19226;51.600;8.034;2022-07-29T10:30:27;28.60;99.90
32877;DHT22;19226;51.600;8.034;2022-07-29T10:36:26;28.80;99.90
32877;DHT22;19226;51.600;8.034;2022-07-29T10:39:05;28.70;99.70
32877;DHT22;19226;51.600;8.034;2022-07-29T10:41:47;28.70;99.90
32877;DHT22;19226;51.600;8.034;2022-07-29T10:44:22;28.70;99.30
32877;DHT22;19226;51.600;8.034;2022-07-29T10:46:50;28.80;99.50
32877;DHT22;19226;51.600;8.034;2022-07-29T10:49:18;28.80;99.40
32877;DHT22;19226;51.600;8.034;2022-07-29T10:52:06;29.00;99.60
32877;DHT22;19226;51.600;8.034;2022-07-29T11:02:40;29.20;97.80
32877;DHT22;19226;51.600;8.034;2022-07-29T11:05:18;29.10;97.10
32877;DHT22;19226;51.600;8.034;2022-07-29T11:10:40;29.30;97.60
32877;DHT22;19226;51.600;8.034;2022-07-29T11:13:06;29.20;97.40
32877;DHT22;19226;51.600;8.034;2022-07-29T11:15:55;29.20;97.80
32877;DHT22;19226;51.600;8.034;2022-07-29T11:18:23;29.40;96.10
32877;DHT22;19226;51.600;8.034;2022-07-29T11:20:53;29.30;96.70
32877;DHT22;19226;51.600;8.034;2022-07-29T11:23:32;29.50;96.20
32877;DHT22;19226;51.600;8.034;2022-07-29T11:26:15;29.70;96.30
32877;DHT22;19226;51.600;8.034;2022-07-29T11:31:40;29.70;95.50
32877;DHT22;19226;51.600;8.034;2022-07-29T11:34:31;29.80;95.00
32877;DHT22;19226;51.600;8.034;2022-07-29T11:39:39;29.80;94.10
32877;DHT22;19226;51.600;8.034;2022-07-29T11:45:08;29.80;92.70
32877;DHT22;19226;51.600;8.034;2022-07-29T11:47:37;29.30;93.30
32877;DHT22;19226;51.600;8.034;2022-07-29T11:50:05;29.30;94.30
32877;DHT22;19226;51.600;8.034;2022-07-29T11:52:42;29.50;95.30
32877;DHT22;19226;51.600;8.034;2022-07-29T11:55:16;29.70;95.20
32877;DHT22;19226;51.600;8.034;2022-07-29T11:57:55;29.70;93.90
32877;DHT22;19226;51.600;8.034;2022-07-29T12:00:37;29.80;93.10
32877;DHT22;19226;51.600;8.034;2022-07-29T12:03:08;29.70;92.90
32877;DHT22;19226;51.600;8.034;2022-07-29T12:05:40;29.70;94.20
32877;DHT22;19226;51.600;8.034;2022-07-29T12:08:21;29.70;93.10
32877;DHT22;19226;51.600;8.034;2022-07-29T12:10:49;29.70;93.50
32877;DHT22;19226;51.600;8.034;2022-07-29T12:13:38;29.50;92.60
32877;DHT22;19226;51.600;8.034;2022-07-29T12:16:04;29.40;93.10
32877;DHT22;19226;51.600;8.034;2022-07-29T12:18:30;29.50;94.30
32877;DHT22;19226;51.600;8.034;2022-07-29T12:21:01;29.50;94.40
32877;DHT22;19226;51.600;8.034;2022-07-29T12:23:32;29.50;93.70
32877;DHT22;19226;51.600;8.034;2022-07-29T12:26:00;29.40;93.70
32877;DHT22;19226;51.600;8.034;2022-07-29T12:28:27;29.40;93.50
32877;DHT22;19226;51.600;8.034;2022-07-29T12:30:53;29.40;93.90
32877;DHT22;19226;51.600;8.034;2022-07-29T12:33:28;29.30;94.00
32877;DHT22;19226;51.600;8.034;2022-07-29T12:36:00;29.30;94.50
32877;DHT22;19226;51.600;8.034;2022-07-29T12:38:30;29.20;95.40
32877;DHT22;19226;51.600;8.034;2022-07-29T12:40:56;29.10;96.20
32877;DHT22;19226;51.600;8.034;2022-07-29T12:43:25;28.80;97.30
32877;DHT22;19226;51.600;8.034;2022-07-29T12:45:56;28.60;97.90
32877;DHT22;19226;51.600;8.034;2022-07-29T12:48:37;28.40;98.30
32877;DHT22;19226;51.600;8.034;2022-07-29T12:51:04;28.20;99.50
32877;DHT22;19226;51.600;8.034;2022-07-29T12:53:33;28.10;99.50
32877;DHT22;19226;51.600;8.034;2022-07-29T12:56:03;28.00;99.70
32877;DHT22;19226;51.600;8.034;2022-07-29T12:58:41;27.80;99.90
32877;DHT22;19226;51.600;8.034;2022-07-29T13:01:13;27.70;99.90
32877;DHT22;19226;51.600;8.034;2022-07-29T13:03:55;27.50;99.90
32877;DHT22;19226;51.600;8.034;2022-07-29T13:06:40;27.30;99.90
32877;DHT22;19226;51.600;8.034;2022-07-29T13:11:44;27.10;99.90
32877;DHT22;19226;51.600;8.034;2022-07-29T13:14:54;27.00;99.90
32877;DHT22;19226;51.600;8.034;2022-07-29T13:17:20;27.00;99.90
32877;DHT22;19226;51.600;8.034;2022-07-29T13:20:10;27.00;99.90
32877;DHT22;19226;51.600;8.034;2022-07-29T13:22:41;26.90;99.90
32877;DHT22;19226;51.600;8.034;2022-07-29T13:25:09;26.90;99.90
32877;DHT22;19226;51.600;8.034;2022-07-29T13:27:38;27.00;99.90
32877;DHT22;19226;51.600;8.034;2022-07-29T13:30:09;27.00;99.90
32877;DHT22;19226;51.600;8.034;2022-07-29T13:32:36;26.90;99.90
32877;DHT22;19226;51.600;8.034;2022-07-29T13:35:06;27.10;99.90
32877;DHT22;19226;51.600;8.034;2022-07-29T13:37:34;27.30;99.90
32877;DHT22;19226;51.600;8.034;2022-07-29T13:40:19;27.60;99.90
32877;DHT22;19226;51.600;8.034;2022-07-29T13:42:46;27.80;99.90
32877;DHT22;19226;51.600;8.034;2022-07-29T13:45:12;28.00;99.90
32877;DHT22;19226;51.600;8.034;2022-07-29T13:47:39;28.30;99.90
32877;DHT22;19226;51.600;8.034;2022-07-29T13:50:07;28.60;99.90
32877;DHT22;19226;51.600;8.034;2022-07-29T13:52:36;28.70;99.90
32877;DHT22;19226;51.600;8.034;2022-07-29T13:55:04;28.90;99.90
32877;DHT22;19226;51.600;8.034;2022-07-29T13:57:30;29.00;99.90
32877;DHT22;19226;51.600;8.034;2022-07-29T13:59:58;29.10;99.90
32877;DHT22;19226;51.600;8.034;2022-07-29T14:02:24;29.10;99.90
32877;DHT22;19226;51.600;8.034;2022-07-29T14:04:50;29.20;99.90
32877;DHT22;19226;51.600;8.034;2022-07-29T14:07:16;29.20;99.90
32877;DHT22;19226;51.600;8.034;2022-07-29T14:09:44;29.20;99.90
32877;DHT22;19226;51.600;8.034;2022-07-29T14:12:10;29.30;99.90
32877;DHT22;19226;51.600;8.034;2022-07-29T14:14:43;29.40;99.90
32877;DHT22;19226;51.600;8.034;2022-07-29T14:17:09;29.40;99.90
32877;DHT22;19226;51.600;8.034;2022-07-29T14:19:36;29.60;99.90
32877;DHT22;19226;51.600;8.034;2022-07-29T14:22:04;29.80;99.90
32877;DHT22;19226;51.600;8.034;2022-07-29T14:24:31;29.90;99.90
32877;DHT22;19226;51.600;8.034;2022-07-29T14:26:57;30.00;99.90
32877;DHT22;19226;51.600;8.034;2022-07-29T14:29:24;30.10;99.90
32877;DHT22;19226;51.600;8.034;2022-07-29T14:31:50;30.30;99.90
32877;DHT22;19226;51.600;8.034;2022-07-29T14:34:36;30.40;99.90
32877;DHT22;19226;51.600;8.034;2022-07-29T14:37:04;30.40;99.90
32877;DHT22;19226;51.600;8.034;2022-07-29T14:39:34;30.40;99.90
32877;DHT22;19226;51.600;8.034;2022-07-29T14:42:00;30.50;99.90
32877;DHT22;19226;51.600;8.034;2022-07-29T14:44:27;30.50;99.90
32877;DHT22;19226;51.600;8.034;2022-07-29T14:47:00;30.50;99.90
32877;DHT22;19226;51.600;8.034;2022-07-29T14:49:30;30.40;99.90
32877;DHT22;19226;51.600;8.034;2022-07-29T14:51:56;30.30;99.90
32877;DHT22;19226;51.600;8.034;2022-07-29T14:54:23;30.30;99.90
32877;DHT22;19226;51.600;8.034;2022-07-29T14:56:50;30.30;99.90
32877;DHT22;19226;51.600;8.034;2022-07-29T14:59:17;30.20;99.70
32877;DHT22;19226;51.600;8.034;2022-07-29T15:01:43;30.20;99.60
32877;DHT22;19226;51.600;8.034;2022-07-29T15:04:09;30.10;99.80
32877;DHT22;19226;51.600;8.034;2022-07-29T15:06:54;30.10;99.40
32877;DHT22;19226;51.600;8.034;2022-07-29T15:09:20;30.00;99.30
32877;DHT22;19226;51.600;8.034;2022-07-29T15:11:47;30.00;98.90
32877;DHT22;19226;51.600;8.034;2022-07-29T15:14:13;30.00;99.30
32877;DHT22;19226;51.600;8.034;2022-07-29T15:16:40;30.00;98.60
32877;DHT22;19226;51.600;8.034;2022-07-29T15:19:08;30.00;98.30
32877;DHT22;19226;51.600;8.034;2022-07-29T15:21:37;30.10;98.00
32877;DHT22;19226;51.600;8.034;2022-07-29T15:24:03;29.90;99.10
32877;DHT22;19226;51.600;8.034;2022-07-29T15:26:30;29.70;99.10
32877;DHT22;19226;51.600;8.034;2022-07-29T15:28:57;29.70;98.90
32877;DHT22;19226;51.600;8.034;2022-07-29T15:31:24;29.60;99.30
32877;DHT22;19226;51.600;8.034;2022-07-29T15:33:50;29.80;99.20
32877;DHT22;19226;51.600;8.034;2022-07-29T15:36:16;29.70;99.20
32877;DHT22;19226;51.600;8.034;2022-07-29T15:38:42;29.60;99.60
32877;DHT22;19226;51.600;8.034;2022-07-29T15:41:13;29.70;99.60
32877;DHT22;19226;51.600;8.034;2022-07-29T15:43:44;29.60;99.30
32877;DHT22;19226;51.600;8.034;2022-07-29T15:46:16;29.70;98.40
32877;DHT22;19226;51.600;8.034;2022-07-29T15:49:03;29.80;97.40
32877;DHT22;19226;51.600;8.034;2022-07-29T15:51:29;29.90;97.10
32877;DHT22;19226;51.600;8.034;2022-07-29T15:53:56;29.90;97.30
32877;DHT22;19226;51.600;8.034;2022-07-29T15:56:23;30.00;97.00
32877;DHT22;19226;51.600;8.034;2022-07-29T15:58:50;30.00;96.10
32877;DHT22;19226;51.600;8.034;2022-07-29T16:01:17;30.00;95.40
32877;DHT22;19226;51.600;8.034;2022-07-29T16:03:45;29.90;95.60
32877;DHT22;19226;51.600;8.034;2022-07-29T16:06:22;29.80;94.90
32877;DHT22;19226;51.600;8.034;2022-07-29T16:08:50;29.70;94.90
32877;DHT22;19226;51.600;8.034;2022-07-29T16:11:17;29.50;95.20
32877;DHT22;19226;51.600;8.034;2022-07-29T16:14:03;29.40;95.20
32877;DHT22;19226;51.600;8.034;2022-07-29T16:16:29;29.20;95.90
32877;DHT22;19226;51.600;8.034;2022-07-29T16:18:58;29.00;96.90
32877;DHT22;19226;51.600;8.034;2022-07-29T16:21:30;28.80;97.30
32877;DHT22;19226;51.600;8.034;2022-07-29T16:23:58;28.70;97.50